createdAt,value
2023-05-13T00:00:34.893Z,6.63
2023-05-13T00:03:01.723Z,7.35
2023-05-13T00:05:28.575Z,6.78
2023-05-13T00:07:55.869Z,5.55
2023-05-13T00:10:22.889Z,5.07
2023-05-13T00:12:49.768Z,5.35
2023-05-13T00:15:16.451Z,8.63
2023-05-13T00:17:43.164Z,5.35
2023-05-13T00:20:09.929Z,4.80
2023-05-13T00:22:36.587Z,5.57
2023-05-13T00:25:04.121Z,6.47
2023-05-13T00:27:32.921Z,4.38
2023-05-13T00:30:02.525Z,4.78
2023-05-13T00:32:29.258Z,4.65
2023-05-13T00:34:55.950Z,5.40
2023-05-13T00:37:22.719Z,5.18
2023-05-13T00:39:49.522Z,5.43
2023-05-13T00:42:16.250Z,5.63
2023-05-13T00:44:42.922Z,5.25
2023-05-13T00:47:11.910Z,5.57
2023-05-13T00:49:38.844Z,5.03
2023-05-13T00:52:05.654Z,5.55
2023-05-13T00:54:33.082Z,6.40
2023-05-13T00:57:00.477Z,5.60
2023-05-13T00:59:29.451Z,5.95
2023-05-13T01:02:14.545Z,6.05
2023-05-13T01:05:01.126Z,5.93
2023-05-13T01:07:45.146Z,7.45
2023-05-13T01:10:19.768Z,7.20
2023-05-13T01:12:46.995Z,5.75
2023-05-13T01:15:22.538Z,7.10
2023-05-13T01:20:22.236Z,5.68
2023-05-13T01:22:49.431Z,6.30
2023-05-13T01:25:16.238Z,6.32
2023-05-13T01:27:43.194Z,7.03
2023-05-13T01:30:10.734Z,8.50
2023-05-13T01:32:38.058Z,8.48
2023-05-13T01:35:05.703Z,6.05
2023-05-13T01:37:32.643Z,6.55
2023-05-13T01:39:59.412Z,6.43
2023-05-13T01:42:28.340Z,6.57
2023-05-13T01:44:54.999Z,7.50
2023-05-13T01:47:21.702Z,9.05
2023-05-13T01:49:48.655Z,9.57
2023-05-13T01:52:15.691Z,8.25
2023-05-13T01:54:42.710Z,8.02
2023-05-13T01:57:09.420Z,9.57
2023-05-13T01:59:36.050Z,10.10
2023-05-13T02:02:04.188Z,7.50
2023-05-13T02:04:30.959Z,7.22
2023-05-13T02:06:57.685Z,6.88
2023-05-13T02:09:24.412Z,6.95
2023-05-13T02:11:51.229Z,9.35
2023-05-13T02:14:17.981Z,7.65
2023-05-13T02:16:44.738Z,7.55
2023-05-13T02:19:11.460Z,10.10
2023-05-13T02:21:38.358Z,7.53
2023-05-13T02:24:05.748Z,7.40
2023-05-13T02:26:32.579Z,9.95
2023-05-13T02:28:59.235Z,7.78
2023-05-13T02:31:25.953Z,7.88
2023-05-13T02:33:52.654Z,7.40
2023-05-13T02:36:19.345Z,7.05
2023-05-13T02:38:46.063Z,6.93
2023-05-13T02:41:12.790Z,7.05
2023-05-13T02:43:39.431Z,6.35
2023-05-13T02:46:06.112Z,6.78
2023-05-13T02:48:32.855Z,6.65
2023-05-13T02:50:59.476Z,6.40
2023-05-13T02:53:26.341Z,6.43
2023-05-13T02:55:54.382Z,8.25
2023-05-13T02:58:21.053Z,8.20
2023-05-13T03:00:47.672Z,6.20
2023-05-13T03:03:14.458Z,8.90
2023-05-13T03:05:41.194Z,6.38
2023-05-13T03:08:07.840Z,7.15
2023-05-13T03:10:34.939Z,7.35
2023-05-13T03:13:01.623Z,7.93
2023-05-13T03:15:28.304Z,9.02
2023-05-13T03:17:55.065Z,9.23
2023-05-13T03:20:21.880Z,12.52
2023-05-13T03:22:48.748Z,14.60
2023-05-13T03:25:15.662Z,18.63
2023-05-13T03:27:42.508Z,19.48
2023-05-13T03:30:10.579Z,25.13
2023-05-13T03:32:37.277Z,24.48
2023-05-13T03:35:04.483Z,20.73
2023-05-13T03:37:31.333Z,18.73
2023-05-13T03:39:57.966Z,20.40
2023-05-13T03:42:24.750Z,29.90
2023-05-13T03:44:51.377Z,21.95
2023-05-13T03:47:18.063Z,19.98
2023-05-13T03:49:44.800Z,25.92
2023-05-13T03:52:11.632Z,20.67
2023-05-13T03:54:38.354Z,17.35
2023-05-13T03:57:05.319Z,32.67
2023-05-13T03:59:31.972Z,25.58
2023-05-13T04:01:58.831Z,25.75
2023-05-13T04:04:25.802Z,20.38
2023-05-13T04:06:52.538Z,21.88
2023-05-13T04:09:19.243Z,19.45
2023-05-13T04:11:45.974Z,17.65
2023-05-13T04:14:12.655Z,18.33
2023-05-13T04:16:39.376Z,22.65
2023-05-13T04:19:06.238Z,20.40
2023-05-13T04:21:33.142Z,23.42
2023-05-13T04:23:59.886Z,23.50
2023-05-13T04:26:26.576Z,20.60
2023-05-13T04:28:53.313Z,25.92
2023-05-13T04:31:21.382Z,22.48
2023-05-13T04:33:48.174Z,20.40
2023-05-13T04:36:15.262Z,22.13
2023-05-13T04:38:42.057Z,22.50
2023-05-13T04:41:08.722Z,22.52
2023-05-13T04:43:35.391Z,22.88
2023-05-13T04:46:02.090Z,18.42
2023-05-13T04:48:28.819Z,17.30
2023-05-13T04:50:56.688Z,18.85
2023-05-13T04:53:23.998Z,17.25
2023-05-13T04:55:50.832Z,18.58
2023-05-13T04:58:17.594Z,16.63
2023-05-13T05:00:44.238Z,16.73
2023-05-13T05:03:11.557Z,14.95
2023-05-13T05:05:38.211Z,13.00
2023-05-13T05:08:05.662Z,16.38
2023-05-13T05:10:32.461Z,13.23
2023-05-13T05:12:59.333Z,16.50
2023-05-13T05:15:26.119Z,12.10
2023-05-13T05:17:55.583Z,12.18
2023-05-13T05:20:24.307Z,15.60
2023-05-13T05:22:50.996Z,15.38
2023-05-13T05:25:17.658Z,14.05
2023-05-13T05:27:44.395Z,14.55
2023-05-13T05:30:11.827Z,13.75
2023-05-13T05:32:38.837Z,13.10
2023-05-13T05:35:05.990Z,11.85
2023-05-13T05:37:32.747Z,12.40
2023-05-13T05:39:59.438Z,12.85
2023-05-13T05:42:26.173Z,11.38
2023-05-13T05:44:52.908Z,12.48
2023-05-13T05:47:19.565Z,11.40
2023-05-13T05:49:46.444Z,14.48
2023-05-13T05:52:13.447Z,13.82
2023-05-13T05:54:40.106Z,13.95
2023-05-13T05:57:06.776Z,12.55
2023-05-13T05:59:33.490Z,12.57
2023-05-13T06:02:00.279Z,12.30
2023-05-13T06:04:27.126Z,12.02
2023-05-13T06:06:53.895Z,11.57
2023-05-13T06:09:20.678Z,10.23
2023-05-13T06:11:47.353Z,11.77
2023-05-13T06:14:14.091Z,10.93
2023-05-13T06:16:41.046Z,10.88
2023-05-13T06:19:07.799Z,9.85
2023-05-13T06:21:34.852Z,8.57
2023-05-13T06:24:03.162Z,9.30
2023-05-13T06:26:30.022Z,9.25
2023-05-13T06:28:56.740Z,9.73
2023-05-13T06:31:23.391Z,10.07
2023-05-13T06:33:50.138Z,11.75
2023-05-13T06:36:16.824Z,10.77
2023-05-13T06:38:43.497Z,7.50
2023-05-13T06:41:10.247Z,8.65
2023-05-13T06:43:36.913Z,9.10
2023-05-13T06:46:03.637Z,9.88
2023-05-13T06:48:30.430Z,8.38
2023-05-13T06:50:57.157Z,7.15
2023-05-13T06:53:23.768Z,6.72
2023-05-13T06:55:50.436Z,4.85
2023-05-13T06:58:17.787Z,4.95
2023-05-13T07:00:46.774Z,4.97
2023-05-13T07:03:13.540Z,5.45
2023-05-13T07:05:40.270Z,6.63
2023-05-13T07:08:07.146Z,5.57
2023-05-13T07:10:34.447Z,6.78
2023-05-13T07:13:02.164Z,14.70
2023-05-13T07:15:28.987Z,13.35
2023-05-13T07:17:55.816Z,7.57
2023-05-13T07:20:23.647Z,5.85
2023-05-13T07:22:51.254Z,4.85
2023-05-13T07:25:18.810Z,5.50
2023-05-13T07:27:45.544Z,3.92
2023-05-13T07:30:12.696Z,4.13
2023-05-13T07:32:40.127Z,4.47
2023-05-13T07:35:08.140Z,4.18
2023-05-13T07:37:34.836Z,4.03
2023-05-13T07:40:01.487Z,4.07
2023-05-13T07:42:30.018Z,4.93
2023-05-13T07:44:56.749Z,3.72
2023-05-13T07:47:23.629Z,3.78
2023-05-13T07:49:50.724Z,3.83
2023-05-13T07:52:17.450Z,3.63
2023-05-13T07:54:44.193Z,2.95
2023-05-13T07:57:10.963Z,3.10
2023-05-13T07:59:37.679Z,3.78
2023-05-13T08:02:04.459Z,4.82
2023-05-13T08:04:31.196Z,3.28
2023-05-13T08:06:57.934Z,3.67
2023-05-13T08:09:24.588Z,3.10
2023-05-13T08:11:51.301Z,6.50
2023-05-13T08:14:18.002Z,2.45
2023-05-13T08:16:44.767Z,3.42
2023-05-13T08:19:11.689Z,3.53
2023-05-13T08:21:38.600Z,3.40
2023-05-13T08:24:05.587Z,3.33
2023-05-13T08:26:32.613Z,3.40
2023-05-13T08:28:59.616Z,3.80
2023-05-13T08:31:26.880Z,2.97
2023-05-13T08:33:54.252Z,3.50
2023-05-13T08:36:22.939Z,3.35
2023-05-13T08:38:49.660Z,3.53
2023-05-13T08:41:16.719Z,2.83
2023-05-13T08:43:44.551Z,3.22
2023-05-13T08:46:12.351Z,3.33
2023-05-13T08:48:39.972Z,2.20
2023-05-13T08:51:06.697Z,3.13
2023-05-13T08:53:35.281Z,3.22
2023-05-13T08:56:02.349Z,2.65
2023-05-13T08:58:29.151Z,2.70
2023-05-13T09:00:56.404Z,2.90
2023-05-13T09:03:23.173Z,3.10
2023-05-13T09:05:50.777Z,3.03
2023-05-13T09:08:17.424Z,3.70
2023-05-13T09:10:44.110Z,3.05
2023-05-13T09:13:12.779Z,3.65
2023-05-13T09:15:42.180Z,2.92
2023-05-13T09:18:09.130Z,2.35
2023-05-13T09:20:36.449Z,3.28
2023-05-13T09:23:05.697Z,3.13
2023-05-13T09:25:32.746Z,3.08
2023-05-13T09:28:01.786Z,3.22
2023-05-13T09:30:45.580Z,3.55
2023-05-13T09:33:15.264Z,3.38
2023-05-13T09:35:53.651Z,4.43
2023-05-13T09:38:27.930Z,16.42
2023-05-13T09:40:57.476Z,3.38
2023-05-13T09:43:26.696Z,3.03
2023-05-13T09:45:54.955Z,2.80
2023-05-13T09:48:25.945Z,3.08
2023-05-13T09:50:53.451Z,2.90
2023-05-13T09:53:23.233Z,3.05
2023-05-13T09:55:51.866Z,3.13
2023-05-13T09:58:20.471Z,2.50
2023-05-13T10:00:49.171Z,3.17
2023-05-13T10:03:16.474Z,3.45
2023-05-13T10:05:43.482Z,3.13
2023-05-13T10:08:12.198Z,3.03
2023-05-13T10:10:39.474Z,2.17
2023-05-13T10:13:09.088Z,3.20
2023-05-13T10:15:35.925Z,2.20
2023-05-13T10:18:03.705Z,1.98
2023-05-13T10:20:32.182Z,3.10
2023-05-13T10:22:59.055Z,3.58
2023-05-13T10:25:25.924Z,3.47
2023-05-13T10:27:53.283Z,3.88
2023-05-13T10:30:26.232Z,3.25
2023-05-13T10:32:53.806Z,3.15
2023-05-13T10:35:20.734Z,3.33
2023-05-13T10:38:13.207Z,3.28
2023-05-13T10:41:12.363Z,2.75
2023-05-13T10:43:41.853Z,3.05
2023-05-13T10:46:17.941Z,1.95
2023-05-13T10:48:49.716Z,3.10
2023-05-13T10:51:18.689Z,3.58
2023-05-13T10:56:26.673Z,3.33
2023-05-13T10:59:04.220Z,3.53
2023-05-13T11:01:44.107Z,3.63
2023-05-13T11:04:21.656Z,3.58
2023-05-13T11:06:50.846Z,2.65
2023-05-13T11:09:20.513Z,3.38
2023-05-13T11:11:48.480Z,2.60
2023-05-13T11:14:20.809Z,3.35
2023-05-13T11:17:02.434Z,4.07
2023-05-13T11:19:30.119Z,2.20
2023-05-13T11:21:58.763Z,3.15
2023-05-13T11:24:26.731Z,3.03
2023-05-13T11:26:59.148Z,3.47
2023-05-13T11:29:34.356Z,3.17
2023-05-13T11:32:03.218Z,2.72
2023-05-13T11:34:30.439Z,3.08
2023-05-13T11:37:10.679Z,2.85
2023-05-13T11:39:41.433Z,3.00
2023-05-13T11:42:10.272Z,3.53
2023-05-13T11:44:45.305Z,3.33
2023-05-13T11:47:11.997Z,3.22
2023-05-13T11:49:39.028Z,2.70
2023-05-13T11:52:11.035Z,1.92
2023-05-13T11:54:55.022Z,2.85
2023-05-13T11:57:29.273Z,4.05
2023-05-13T12:00:06.724Z,3.45
2023-05-13T12:02:40.501Z,2.47
2023-05-13T12:05:09.608Z,2.45
2023-05-13T12:07:38.466Z,3.20
2023-05-13T12:10:06.837Z,4.05
2023-05-13T12:12:35.691Z,3.38
2023-05-13T12:15:03.790Z,3.58
2023-05-13T12:17:31.828Z,3.53
2023-05-13T12:20:17.727Z,2.67
2023-05-13T12:22:44.311Z,3.20
2023-05-13T12:25:35.924Z,3.33
2023-05-13T12:28:20.913Z,3.63
2023-05-13T12:31:01.431Z,3.42
2023-05-13T12:33:30.000Z,3.17
2023-05-13T12:36:15.072Z,3.53
2023-05-13T12:38:59.801Z,2.25
2023-05-13T12:41:29.415Z,2.88
2023-05-13T12:43:58.625Z,3.20
2023-05-13T12:46:25.824Z,2.47
2023-05-13T12:48:56.200Z,3.17
2023-05-13T12:51:23.328Z,3.20
2023-05-13T12:53:50.150Z,3.45
2023-05-13T12:56:16.867Z,4.15
2023-05-13T12:58:43.549Z,3.05
2023-05-13T13:01:10.221Z,3.03
2023-05-13T13:03:37.099Z,3.17
2023-05-13T13:06:04.057Z,3.72
2023-05-13T13:08:30.840Z,2.78
2023-05-13T13:10:59.273Z,3.45
2023-05-13T13:13:25.981Z,3.50
2023-05-13T13:15:52.997Z,3.50
2023-05-13T13:18:19.731Z,3.17
2023-05-13T13:20:46.479Z,4.13
2023-05-13T13:23:13.672Z,3.90
2023-05-13T13:25:40.306Z,3.53
2023-05-13T13:28:06.987Z,3.20
2023-05-13T13:30:33.612Z,3.67
2023-05-13T13:33:00.364Z,3.67
2023-05-13T13:35:27.172Z,3.15
2023-05-13T13:37:54.524Z,3.30
2023-05-13T13:40:21.537Z,3.97
2023-05-13T13:42:48.405Z,3.55
2023-05-13T13:45:15.278Z,2.90
2023-05-13T13:47:42.203Z,3.30
2023-05-13T13:50:10.123Z,3.30
2023-05-13T13:52:36.928Z,3.53
2023-05-13T13:55:03.887Z,2.60
2023-05-13T13:57:30.592Z,3.35
2023-05-13T13:59:57.311Z,3.08
2023-05-13T14:02:24.318Z,3.45
2023-05-13T14:04:52.693Z,4.18
2023-05-13T14:07:19.910Z,2.95
2023-05-13T14:09:46.703Z,4.05
2023-05-13T14:12:13.345Z,4.25
2023-05-13T14:14:40.046Z,4.55
2023-05-13T14:17:06.750Z,5.93
2023-05-13T14:19:33.413Z,3.90
2023-05-13T14:22:00.032Z,3.33
2023-05-13T14:24:27.665Z,3.45
2023-05-13T14:26:54.342Z,4.25
2023-05-13T14:29:21.167Z,4.72
2023-05-13T14:31:48.532Z,4.43
2023-05-13T14:34:16.590Z,3.47
2023-05-13T14:36:43.274Z,3.22
2023-05-13T14:39:10.718Z,3.85
2023-05-13T14:41:37.572Z,4.78
2023-05-13T14:44:04.213Z,4.93
2023-05-13T14:46:31.102Z,3.72
2023-05-13T14:48:57.840Z,4.43
2023-05-13T14:51:24.817Z,3.67
2023-05-13T14:53:51.687Z,5.25
2023-05-13T14:56:18.369Z,4.03
2023-05-13T14:58:45.113Z,3.28
2023-05-13T15:01:11.824Z,3.55
2023-05-13T15:03:38.605Z,3.35
2023-05-13T15:06:08.746Z,3.85
2023-05-13T15:08:36.862Z,3.75
2023-05-13T15:11:03.774Z,4.82
2023-05-13T15:13:35.221Z,5.90
2023-05-13T15:16:03.585Z,4.20
2023-05-13T15:18:30.970Z,4.38
2023-05-13T15:20:57.713Z,5.07
2023-05-13T15:23:24.431Z,4.63
2023-05-13T15:25:51.293Z,4.70
2023-05-13T15:28:17.956Z,4.97
2023-05-13T15:30:44.611Z,3.90
2023-05-13T15:33:11.469Z,5.35
2023-05-13T15:35:39.460Z,8.73
2023-05-13T15:38:06.145Z,8.48
2023-05-13T15:40:32.831Z,3.85
2023-05-13T15:42:59.487Z,3.75
2023-05-13T15:45:28.039Z,5.40
2023-05-13T15:47:54.816Z,5.03
2023-05-13T15:50:21.778Z,6.78
2023-05-13T15:52:50.133Z,6.70
2023-05-13T15:55:16.825Z,6.32
2023-05-13T15:57:43.500Z,6.90
2023-05-13T16:00:10.742Z,5.85
2023-05-13T16:02:41.524Z,5.47
2023-05-13T16:05:08.594Z,8.70
2023-05-13T16:07:35.451Z,6.65
2023-05-13T16:10:02.101Z,5.85
2023-05-13T16:12:30.172Z,5.13
2023-05-13T16:14:57.075Z,6.13
2023-05-13T16:17:24.259Z,6.90
2023-05-13T16:19:51.037Z,6.88
2023-05-13T16:22:30.478Z,7.32
2023-05-13T16:25:08.958Z,7.68
2023-05-13T16:27:36.430Z,11.20
2023-05-13T16:30:04.332Z,18.33
2023-05-13T16:32:31.077Z,9.73
2023-05-13T16:34:57.840Z,4.50
2023-05-13T16:37:24.742Z,7.45
2023-05-13T16:39:51.635Z,8.10
2023-05-13T16:42:19.761Z,7.47
2023-05-13T16:44:49.232Z,5.93
2023-05-13T16:47:16.054Z,6.00
2023-05-13T16:49:42.808Z,5.20
2023-05-13T16:52:09.509Z,6.03
2023-05-13T16:54:36.184Z,7.00
2023-05-13T16:57:02.826Z,6.68
2023-05-13T16:59:29.605Z,6.15
2023-05-13T17:01:56.459Z,7.50
2023-05-13T17:04:23.175Z,6.78
2023-05-13T17:06:50.049Z,6.97
2023-05-13T17:09:16.704Z,13.40
2023-05-13T17:11:43.493Z,6.22
2023-05-13T17:14:10.242Z,5.75
2023-05-13T17:16:37.183Z,8.10
2023-05-13T17:19:03.944Z,7.25
2023-05-13T17:21:30.687Z,10.57
2023-05-13T17:23:57.505Z,7.25
2023-05-13T17:26:24.174Z,7.20
2023-05-13T17:28:51.246Z,7.07
2023-05-13T17:31:18.483Z,5.90
2023-05-13T17:33:46.725Z,9.10
2023-05-13T17:36:13.460Z,9.02
2023-05-13T17:38:40.163Z,6.15
2023-05-13T17:41:06.816Z,5.40
2023-05-13T17:43:33.544Z,4.53
2023-05-13T17:46:00.282Z,7.15
2023-05-13T17:48:27.187Z,7.45
2023-05-13T17:50:54.209Z,6.78
2023-05-13T17:53:21.384Z,5.97
2023-05-13T17:55:48.750Z,7.05
2023-05-13T17:58:16.192Z,5.43
2023-05-13T18:00:43.106Z,5.53
2023-05-13T18:03:09.883Z,6.32
2023-05-13T18:05:36.787Z,8.43
2023-05-13T18:08:03.640Z,18.95
2023-05-13T18:10:30.436Z,6.60
2023-05-13T18:12:57.321Z,6.95
2023-05-13T18:15:24.072Z,6.40
2023-05-13T18:17:50.873Z,7.35
2023-05-13T18:20:18.478Z,8.65
2023-05-13T18:22:45.357Z,9.27
2023-05-13T18:25:12.164Z,13.23
2023-05-13T18:27:38.889Z,12.23
2023-05-13T18:30:07.313Z,10.52
2023-05-13T18:32:33.992Z,9.65
2023-05-13T18:35:00.730Z,8.98
2023-05-13T18:37:27.525Z,9.77
2023-05-13T18:39:54.177Z,7.13
2023-05-13T18:42:21.345Z,9.70
2023-05-13T18:44:48.091Z,8.30
2023-05-13T18:47:14.743Z,10.65
2023-05-13T18:49:41.461Z,8.55
2023-05-13T18:52:08.280Z,15.02
2023-05-13T18:54:36.226Z,10.05
2023-05-13T18:57:03.143Z,29.75
2023-05-13T18:59:29.986Z,14.35
2023-05-13T19:01:57.444Z,61.05
2023-05-13T19:04:24.555Z,52.53
2023-05-13T19:06:51.547Z,21.27
2023-05-13T19:09:18.210Z,76.38
2023-05-13T19:11:44.877Z,63.50
2023-05-13T19:14:11.594Z,124.07
2023-05-13T19:16:38.439Z,138.05
2023-05-13T19:19:05.468Z,51.83
2023-05-13T19:21:32.145Z,58.58
2023-05-13T19:23:58.911Z,25.35
2023-05-13T19:26:25.710Z,18.02
2023-05-13T19:28:52.553Z,8.80
2023-05-13T19:31:19.333Z,8.90
2023-05-13T19:33:46.491Z,9.50
2023-05-13T19:36:13.426Z,9.32
2023-05-13T19:38:40.173Z,11.07
2023-05-13T19:41:06.859Z,8.10
2023-05-13T19:43:33.531Z,9.65
2023-05-13T19:46:00.356Z,10.70
2023-05-13T19:48:29.826Z,6.32
2023-05-13T19:50:57.938Z,6.78
2023-05-13T19:53:24.681Z,6.90
2023-05-13T19:55:51.564Z,7.32
2023-05-13T19:58:18.394Z,9.15
2023-05-13T20:00:45.354Z,12.13
2023-05-13T20:03:12.168Z,8.48
2023-05-13T20:05:41.272Z,7.63
2023-05-13T20:08:08.102Z,10.20
2023-05-13T20:10:37.917Z,7.20
2023-05-13T20:13:04.870Z,10.77
2023-05-13T20:15:32.192Z,8.73
2023-05-13T20:17:59.104Z,9.93
2023-05-13T20:20:25.960Z,10.40
2023-05-13T20:22:52.694Z,11.32
2023-05-13T20:25:19.528Z,10.35
2023-05-13T20:27:46.269Z,11.18
2023-05-13T20:30:13.392Z,10.93
2023-05-13T20:32:40.374Z,10.52
2023-05-13T20:35:07.801Z,10.77
2023-05-13T20:37:35.085Z,11.65
2023-05-13T20:40:01.766Z,11.57
2023-05-13T20:42:28.637Z,12.02
2023-05-13T20:44:55.993Z,9.45
2023-05-13T20:47:22.672Z,10.27
2023-05-13T20:49:49.414Z,14.60
2023-05-13T20:52:16.351Z,11.25
2023-05-13T20:54:43.087Z,10.25
2023-05-13T20:57:09.742Z,10.85
2023-05-13T20:59:36.482Z,13.20
2023-05-13T21:02:03.328Z,13.98
2023-05-13T21:04:30.038Z,14.23
2023-05-13T21:06:57.407Z,14.68
2023-05-13T21:09:24.152Z,13.57
2023-05-13T21:11:50.831Z,10.68
2023-05-13T21:14:17.438Z,12.45
2023-05-13T21:16:44.138Z,14.13
2023-05-13T21:19:19.625Z,13.55
2023-05-13T21:21:46.321Z,11.02
2023-05-13T21:24:16.903Z,11.23
2023-05-13T21:26:43.750Z,12.02
2023-05-13T21:29:10.372Z,12.77
2023-05-13T21:31:37.105Z,11.98
2023-05-13T21:34:03.894Z,14.88
2023-05-13T21:36:31.839Z,11.82
2023-05-13T21:38:58.666Z,11.18
2023-05-13T21:41:26.217Z,11.77
2023-05-13T21:43:52.880Z,13.70
2023-05-13T21:46:19.577Z,12.20
2023-05-13T21:48:46.893Z,11.75
2023-05-13T21:51:13.860Z,11.63
2023-05-13T21:53:40.669Z,15.43
2023-05-13T21:56:07.349Z,14.13
2023-05-13T21:58:33.959Z,13.23
2023-05-13T22:01:01.339Z,12.85
2023-05-13T22:03:28.141Z,14.25
2023-05-13T22:05:54.865Z,12.68
2023-05-13T22:08:22.110Z,12.13
2023-05-13T22:10:48.830Z,12.88
2023-05-13T22:13:15.757Z,13.77
2023-05-13T22:15:42.489Z,12.52
2023-05-13T22:18:09.445Z,18.60
2023-05-13T22:20:36.249Z,17.60
2023-05-13T22:23:02.934Z,20.60
2023-05-13T22:25:29.628Z,17.70
2023-05-13T22:27:56.339Z,33.15
2023-05-13T22:30:23.362Z,32.95
2023-05-13T22:32:51.020Z,17.70
2023-05-13T22:35:17.764Z,17.88
2023-05-13T22:37:44.464Z,14.73
2023-05-13T22:40:11.738Z,15.55
2023-05-13T22:42:38.554Z,16.23
2023-05-13T22:45:05.624Z,13.77
2023-05-13T22:47:32.360Z,12.77
2023-05-13T22:49:59.081Z,12.40
2023-05-13T22:52:25.713Z,11.43
2023-05-13T22:54:52.453Z,12.80
2023-05-13T22:57:19.146Z,14.68
2023-05-13T22:59:46.020Z,17.60
2023-05-13T23:02:12.803Z,19.02
2023-05-13T23:04:39.585Z,26.48
2023-05-13T23:07:06.262Z,20.60
2023-05-13T23:09:32.934Z,17.15
2023-05-13T23:11:59.603Z,13.75
2023-05-13T23:14:27.704Z,12.80
2023-05-13T23:16:54.443Z,14.20
2023-05-13T23:19:21.110Z,11.32
2023-05-13T23:21:47.791Z,13.63
2023-05-13T23:24:14.471Z,12.50
2023-05-13T23:26:41.168Z,10.98
2023-05-13T23:29:07.911Z,11.77
2023-05-13T23:31:34.645Z,14.77
2023-05-13T23:34:01.456Z,13.43
2023-05-13T23:36:28.121Z,15.85
2023-05-13T23:38:54.928Z,14.65
2023-05-13T23:41:21.865Z,30.30
2023-05-13T23:43:48.492Z,33.25
2023-05-13T23:46:15.255Z,33.72
2023-05-13T23:48:41.929Z,22.77
2023-05-13T23:51:08.725Z,15.90
2023-05-13T23:53:35.495Z,11.38
2023-05-13T23:56:02.185Z,9.77
2023-05-13T23:58:28.895Z,11.82
